Cusick, WA

5:52 PM PDT on August 30, 2016 (GMT -0700)
RAWS | | Change Station

Elev 2450 ft 48.42 °N, 117.36 °W | Updated 57 minutes ago

Clear
Clear
87 °F
Feels Like 84 °F
N
0
Wind Variable Wind from East
Gusts 4.0 mph

Today
High -- | Low -- °F
--% Chance of Precip.
Yesterday
High -- | Low -- °F
Precip. -- in
Pressure 29.85 in
Visibility 10.0 miles
Clouds Clear
Heat Index 84 °F
Dew Point 44 °F
Humidity 23%
Rainfall in
Snow Depth Not available.
6:04 AM 7:33 PM
Waning Crescent, 2% visible
METAR KDEW 302353Z AUTO 20006KT 10SM CLR 31/06 A2989 RMK AO2 SLP108 T03110056 10322 20261 55011
Pressure 29.85 in
Visibility 10.0 miles
Clouds Clear
Heat Index 84 °F
Dew Point 44 °F
Humidity 23%
Rainfall in
Snow Depth Not available.
6:04 AM 7:33 PM
Waning Crescent, 2% visible
METAR KDEW 302353Z AUTO 20006KT 10SM CLR 31/06 A2989 RMK AO2 SLP108 T03110056 10322 20261 55011

10-Day Weather Forecast

Almanac

Astronomy

Aug. 30, 2016 Rise Set
Actual Time
Civil Twilight
Nautical Twilight
Astronomical Twilight
Moon
Length of Visible Light
Length of Day
Tomorrow will be .
, % of the Moon is Illuminated

Today's Extremes

State Highs State Lows

Community

WunderPhotos

Upload Photos

1,935,964 photos uploaded!

WunderBlog® & News

Nearby

Air Quality

  Air Quality AQ Index Pollutant
Not available.

Snow Depth

Station Depth Elevation

Earthquake Activity

City Distance Mag. Time & Date
Minimum magnitude displayed is 2.5.

Coastal Water Temperatures

Place Temperature

Stations

Nearby Weather Stations

Station Location Temp. Windchill Dew Point Humidity Wind Precip. Elev Updated Type
                   

Watches & Warnings

There are currently no watches in effect.